sensor_id;sensor_type;location;lat;lon;timestamp;pressure;altitude;pressure_sealevel;temperature;humidity
40612;BME280;26317;44.894;20.286;2023-07-31T00:01:46;100473.66;;;22.52;95.15
40612;BME280;26317;44.894;20.286;2023-07-31T00:04:16;100470.13;;;22.51;95.63
40612;BME280;26317;44.894;20.286;2023-07-31T00:06:45;100474.78;;;22.51;95.90
40612;BME280;26317;44.894;20.286;2023-07-31T00:09:18;100471.28;;;22.50;96.10
40612;BME280;26317;44.894;20.286;2023-07-31T00:11:48;100459.44;;;22.46;96.65
40612;BME280;26317;44.894;20.286;2023-07-31T00:14:18;100461.75;;;22.44;97.03
40612;BME280;26317;44.894;20.286;2023-07-31T00:16:53;100467.56;;;22.42;97.24
40612;BME280;26317;44.894;20.286;2023-07-31T00:19:23;100459.72;;;22.41;98.22
40612;BME280;26317;44.894;20.286;2023-07-31T00:21:54;100461.66;;;22.40;98.42
40612;BME280;26317;44.894;20.286;2023-07-31T00:24:33;100459.28;;;22.39;98.52
40612;BME280;26317;44.894;20.286;2023-07-31T00:27:03;100452.66;;;22.40;97.97
40612;BME280;26317;44.894;20.286;2023-07-31T00:29:33;100454.59;;;22.39;97.90
40612;BME280;26317;44.894;20.286;2023-07-31T00:32:06;100457.00;;;22.41;97.97
40612;BME280;26317;44.894;20.286;2023-07-31T00:34:36;100455.41;;;22.40;98.10
40612;BME280;26317;44.894;20.286;2023-07-31T00:37:06;100455.41;;;22.40;97.88
40612;BME280;26317;44.894;20.286;2023-07-31T00:39:36;100453.81;;;22.39;98.02
40612;BME280;26317;44.894;20.286;2023-07-31T00:42:09;100443.25;;;22.37;98.20
40612;BME280;26317;44.894;20.286;2023-07-31T00:44:40;100451.06;;;22.39;96.61
40612;BME280;26317;44.894;20.286;2023-07-31T00:47:13;100448.25;;;22.35;97.25
40612;BME280;26317;44.894;20.286;2023-07-31T00:49:43;100445.09;;;22.33;96.61
40612;BME280;26317;44.894;20.286;2023-07-31T00:52:13;100445.44;;;22.32;96.96
40612;BME280;26317;44.894;20.286;2023-07-31T00:54:43;100448.88;;;22.29;97.48
40612;BME280;26317;44.894;20.286;2023-07-31T00:57:16;100451.94;;;22.27;98.01
40612;BME280;26317;44.894;20.286;2023-07-31T00:59:46;100453.00;;;22.23;98.36
40612;BME280;26317;44.894;20.286;2023-07-31T01:02:19;100452.91;;;22.19;98.67
40612;BME280;26317;44.894;20.286;2023-07-31T01:04:49;100443.03;;;22.15;98.75
40612;BME280;26317;44.894;20.286;2023-07-31T01:07:20;100444.97;;;22.14;98.82
40612;BME280;26317;44.894;20.286;2023-07-31T01:09:52;100445.75;;;22.15;98.11
40612;BME280;26317;44.894;20.286;2023-07-31T01:12:29;100449.63;;;22.14;98.00
40612;BME280;26317;44.894;20.286;2023-07-31T01:15:04;100447.25;;;22.12;97.71
40612;BME280;26317;44.894;20.286;2023-07-31T01:17:43;100444.06;;;22.10;97.20
40612;BME280;26317;44.894;20.286;2023-07-31T01:20:18;100435.44;;;22.08;97.49
40612;BME280;26317;44.894;20.286;2023-07-31T01:23:09;100441.25;;;22.07;96.75
40612;BME280;26317;44.894;20.286;2023-07-31T01:25:53;100439.22;;;22.04;97.19
40612;BME280;26317;44.894;20.286;2023-07-31T01:28:25;100434.44;;;22.00;97.49
40612;BME280;26317;44.894;20.286;2023-07-31T01:30:57;100437.16;;;22.00;98.12
40612;BME280;26317;44.894;20.286;2023-07-31T01:33:29;100443.00;;;21.99;98.16
40612;BME280;26317;44.894;20.286;2023-07-31T01:35:59;100434.00;;;21.98;97.51
40612;BME280;26317;44.894;20.286;2023-07-31T01:38:32;100434.81;;;21.99;97.82
40612;BME280;26317;44.894;20.286;2023-07-31T01:41:04;100433.66;;;22.00;97.29
40612;BME280;26317;44.894;20.286;2023-07-31T01:43:34;100418.41;;;21.99;97.15
40612;BME280;26317;44.894;20.286;2023-07-31T01:46:04;100427.75;;;21.98;97.55
40612;BME280;26317;44.894;20.286;2023-07-31T01:48:34;100415.69;;;21.99;97.10
40612;BME280;26317;44.894;20.286;2023-07-31T01:51:05;100414.09;;;21.98;96.78
40612;BME280;26317;44.894;20.286;2023-07-31T01:53:37;100411.69;;;21.96;96.87
40612;BME280;26317;44.894;20.286;2023-07-31T01:56:10;100415.59;;;21.95;96.20
40612;BME280;26317;44.894;20.286;2023-07-31T01:58:40;100422.19;;;21.94;95.96
40612;BME280;26317;44.894;20.286;2023-07-31T02:01:09;100415.81;;;21.90;96.39
40612;BME280;26317;44.894;20.286;2023-07-31T02:03:39;100411.81;;;21.88;96.63
40612;BME280;26317;44.894;20.286;2023-07-31T02:06:09;100407.53;;;21.87;97.12
40612;BME280;26317;44.894;20.286;2023-07-31T02:08:40;100412.19;;;21.86;97.99
40612;BME280;26317;44.894;20.286;2023-07-31T02:11:16;100416.06;;;21.85;98.02
40612;BME280;26317;44.894;20.286;2023-07-31T02:13:48;100412.88;;;21.83;98.14
40612;BME280;26317;44.894;20.286;2023-07-31T02:16:18;100419.94;;;21.84;97.98
40612;BME280;26317;44.894;20.286;2023-07-31T02:18:48;100408.56;;;21.82;98.76
40612;BME280;26317;44.894;20.286;2023-07-31T02:21:18;100405.06;;;21.82;98.62
40612;BME280;26317;44.894;20.286;2023-07-31T02:23:49;100407.78;;;21.82;98.90
40612;BME280;26317;44.894;20.286;2023-07-31T02:26:24;100409.72;;;21.81;98.72
40612;BME280;26317;44.894;20.286;2023-07-31T02:28:54;100413.56;;;21.80;98.73
40612;BME280;26317;44.894;20.286;2023-07-31T02:31:24;100406.53;;;21.79;98.65
40612;BME280;26317;44.894;20.286;2023-07-31T02:33:54;100414.72;;;21.79;98.54
40612;BME280;26317;44.894;20.286;2023-07-31T02:36:24;100416.56;;;21.75;98.77
40612;BME280;26317;44.894;20.286;2023-07-31T02:38:55;100422.38;;;21.74;98.38
40612;BME280;26317;44.894;20.286;2023-07-31T02:41:30;100423.09;;;21.71;98.95
40612;BME280;26317;44.894;20.286;2023-07-31T02:44:01;100429.22;;;21.68;99.42
40612;BME280;26317;44.894;20.286;2023-07-31T02:46:30;100427.09;;;21.61;99.63
40612;BME280;26317;44.894;20.286;2023-07-31T02:49:00;100428.22;;;21.60;100.00
40612;BME280;26317;44.894;20.286;2023-07-31T02:51:30;100430.97;;;21.60;100.00
40612;BME280;26317;44.894;20.286;2023-07-31T02:54:00;100432.47;;;21.58;100.00
40612;BME280;26317;44.894;20.286;2023-07-31T02:56:33;100423.25;;;21.50;100.00
40612;BME280;26317;44.894;20.286;2023-07-31T02:59:03;100440.09;;;21.52;100.00
40612;BME280;26317;44.894;20.286;2023-07-31T03:01:33;100436.91;;;21.50;100.00
40612;BME280;26317;44.894;20.286;2023-07-31T03:04:04;100438.06;;;21.49;100.00
40612;BME280;26317;44.894;20.286;2023-07-31T03:06:34;100434.16;;;21.50;100.00
40612;BME280;26317;44.894;20.286;2023-07-31T03:09:07;100439.19;;;21.48;100.00
40612;BME280;26317;44.894;20.286;2023-07-31T03:11:43;100441.03;;;21.44;100.00
40612;BME280;26317;44.894;20.286;2023-07-31T03:14:13;100440.56;;;21.42;100.00
40612;BME280;26317;44.894;20.286;2023-07-31T03:16:44;100438.91;;;21.37;100.00
40612;BME280;26317;44.894;20.286;2023-07-31T03:19:13;100441.50;;;21.34;100.00
40612;BME280;26317;44.894;20.286;2023-07-31T03:21:43;100443.78;;;21.32;100.00
40612;BME280;26317;44.894;20.286;2023-07-31T03:24:14;100457.00;;;21.18;100.00
40612;BME280;26317;44.894;20.286;2023-07-31T03:26:48;100457.66;;;21.02;100.00
40612;BME280;26317;44.894;20.286;2023-07-31T03:29:18;100454.47;;;20.88;100.00
40612;BME280;26317;44.894;20.286;2023-07-31T03:31:51;100460.03;;;20.67;100.00
40612;BME280;26317;44.894;20.286;2023-07-31T03:34:21;100466.50;;;20.63;100.00
40612;BME280;26317;44.894;20.286;2023-07-31T03:36:51;100467.41;;;20.55;100.00
40612;BME280;26317;44.894;20.286;2023-07-31T03:39:21;100464.91;;;20.50;100.00
40612;BME280;26317;44.894;20.286;2023-07-31T03:41:54;100476.59;;;20.38;100.00
40612;BME280;26317;44.894;20.286;2023-07-31T03:44:23;100472.03;;;20.30;100.00
40612;BME280;26317;44.894;20.286;2023-07-31T03:46:53;100470.28;;;20.26;100.00
40612;BME280;26317;44.894;20.286;2023-07-31T03:49:23;100458.41;;;20.30;100.00
40612;BME280;26317;44.894;20.286;2023-07-31T03:51:53;100470.69;;;20.36;100.00
40612;BME280;26317;44.894;20.286;2023-07-31T03:54:24;100471.50;;;20.37;100.00
40612;BME280;26317;44.894;20.286;2023-07-31T03:56:56;100475.53;;;20.31;100.00
40612;BME280;26317;44.894;20.286;2023-07-31T03:59:26;100473.63;;;20.31;100.00
40612;BME280;26317;44.894;20.286;2023-07-31T04:01:58;100466.56;;;20.30;100.00
40612;BME280;26317;44.894;20.286;2023-07-31T04:04:28;100457.88;;;20.37;100.00
40612;BME280;26317;44.894;20.286;2023-07-31T04:07:01;100458.63;;;20.37;100.00
40612;BME280;26317;44.894;20.286;2023-07-31T04:09:31;100460.03;;;20.43;100.00
40612;BME280;26317;44.894;20.286;2023-07-31T04:12:04;100466.50;;;20.51;100.00
40612;BME280;26317;44.894;20.286;2023-07-31T04:14:35;100462.88;;;20.59;100.00
40612;BME280;26317;44.894;20.286;2023-07-31T04:17:05;100465.84;;;20.66;100.00
40612;BME280;26317;44.894;20.286;2023-07-31T04:19:38;100479.38;;;20.75;100.00
40612;BME280;26317;44.894;20.286;2023-07-31T04:22:07;100478.34;;;20.79;100.00
40612;BME280;26317;44.894;20.286;2023-07-31T04:24:37;100473.78;;;20.83;100.00
40612;BME280;26317;44.894;20.286;2023-07-31T04:27:10;100472.34;;;20.86;100.00
40612;BME280;26317;44.894;20.286;2023-07-31T04:29:40;100481.63;;;20.85;100.00
40612;BME280;26317;44.894;20.286;2023-07-31T04:32:12;100486.88;;;20.90;100.00
40612;BME280;26317;44.894;20.286;2023-07-31T04:34:43;100492.91;;;20.95;100.00
40612;BME280;26317;44.894;20.286;2023-07-31T04:37:13;100490.72;;;21.01;100.00
40612;BME280;26317;44.894;20.286;2023-07-31T04:39:43;100495.63;;;21.07;100.00
40612;BME280;26317;44.894;20.286;2023-07-31T04:42:15;100489.94;;;21.13;100.00
40612;BME280;26317;44.894;20.286;2023-07-31T04:44:45;100496.09;;;21.22;100.00
40612;BME280;26317;44.894;20.286;2023-07-31T04:47:15;100504.63;;;21.20;100.00
40612;BME280;26317;44.894;20.286;2023-07-31T04:49:46;100507.09;;;21.25;100.00
40612;BME280;26317;44.894;20.286;2023-07-31T04:52:18;100499.28;;;21.24;100.00
40612;BME280;26317;44.894;20.286;2023-07-31T04:54:51;100506.19;;;21.21;100.00
40612;BME280;26317;44.894;20.286;2023-07-31T04:57:23;100499.97;;;21.21;100.00
40612;BME280;26317;44.894;20.286;2023-07-31T04:59:53;100509.94;;;21.17;100.00
40612;BME280;26317;44.894;20.286;2023-07-31T05:02:27;100512.69;;;21.17;100.00
40612;BME280;26317;44.894;20.286;2023-07-31T05:04:57;100516.53;;;21.03;100.00
40612;BME280;26317;44.894;20.286;2023-07-31T05:07:27;100517.69;;;21.15;100.00
40612;BME280;26317;44.894;20.286;2023-07-31T05:09:57;100531.78;;;21.17;100.00
40612;BME280;26317;44.894;20.286;2023-07-31T05:12:30;100538.03;;;21.17;100.00
40612;BME280;26317;44.894;20.286;2023-07-31T05:17:45;100546.78;;;21.23;100.00
40612;BME280;26317;44.894;20.286;2023-07-31T05:20:15;100531.41;;;21.06;100.00
40612;BME280;26317;44.894;20.286;2023-07-31T05:22:46;100560.53;;;21.14;100.00
40612;BME280;26317;44.894;20.286;2023-07-31T05:25:18;100549.69;;;21.05;100.00
40612;BME280;26317;44.894;20.286;2023-07-31T05:27:49;100556.28;;;21.04;100.00
40612;BME280;26317;44.894;20.286;2023-07-31T05:30:19;100548.09;;;20.92;100.00
40612;BME280;26317;44.894;20.286;2023-07-31T05:32:52;100553.66;;;20.96;100.00
40612;BME280;26317;44.894;20.286;2023-07-31T05:35:23;100563.34;;;21.05;100.00
40612;BME280;26317;44.894;20.286;2023-07-31T05:37:53;100567.44;;;21.11;100.00
40612;BME280;26317;44.894;20.286;2023-07-31T05:40:26;100566.78;;;21.15;100.00
40612;BME280;26317;44.894;20.286;2023-07-31T05:42:57;100568.84;;;21.18;100.00
40612;BME280;26317;44.894;20.286;2023-07-31T05:45:27;100562.03;;;21.24;100.00
40612;BME280;26317;44.894;20.286;2023-07-31T05:48:00;100559.19;;;21.32;100.00
40612;BME280;26317;44.894;20.286;2023-07-31T05:50:31;100567.91;;;21.38;100.00
40612;BME280;26317;44.894;20.286;2023-07-31T05:53:06;100541.00;;;21.24;100.00
40612;BME280;26317;44.894;20.286;2023-07-31T05:55:37;100559.88;;;21.41;100.00
40612;BME280;26317;44.894;20.286;2023-07-31T05:58:07;100558.16;;;21.49;100.00
40612;BME280;26317;44.894;20.286;2023-07-31T06:00:38;100561.09;;;21.56;100.00
40612;BME280;26317;44.894;20.286;2023-07-31T06:03:10;100565.38;;;21.69;100.00
40612;BME280;26317;44.894;20.286;2023-07-31T06:05:41;100566.06;;;21.78;100.00
40612;BME280;26317;44.894;20.286;2023-07-31T06:08:14;100555.56;;;21.80;100.00
40612;BME280;26317;44.894;20.286;2023-07-31T06:10:51;100553.50;;;21.89;100.00
40612;BME280;26317;44.894;20.286;2023-07-31T06:13:24;100552.84;;;21.92;100.00
40612;BME280;26317;44.894;20.286;2023-07-31T06:16:03;100563.06;;;22.08;100.00
40612;BME280;26317;44.894;20.286;2023-07-31T06:18:40;100541.88;;;22.05;100.00
40612;BME280;26317;44.894;20.286;2023-07-31T06:21:27;100557.63;;;22.23;100.00
40612;BME280;26317;44.894;20.286;2023-07-31T06:24:02;100549.53;;;22.27;100.00
40612;BME280;26317;44.894;20.286;2023-07-31T06:26:36;100553.16;;;22.31;100.00
40612;BME280;26317;44.894;20.286;2023-07-31T06:29:12;100521.13;;;22.16;100.00
40612;BME280;26317;44.894;20.286;2023-07-31T06:31:48;100541.72;;;22.41;100.00
40612;BME280;26317;44.894;20.286;2023-07-31T06:34:23;100528.69;;;22.50;100.00
40612;BME280;26317;44.894;20.286;2023-07-31T06:37:04;100530.66;;;22.65;100.00
40612;BME280;26317;44.894;20.286;2023-07-31T06:39:45;100539.06;;;22.72;100.00
40612;BME280;26317;44.894;20.286;2023-07-31T06:42:26;100538.13;;;22.68;100.00
40612;BME280;26317;44.894;20.286;2023-07-31T06:45:00;100547.88;;;22.81;99.38
40612;BME280;26317;44.894;20.286;2023-07-31T06:47:33;100533.03;;;22.67;98.40
40612;BME280;26317;44.894;20.286;2023-07-31T06:50:20;100539.50;;;22.74;100.00
40612;BME280;26317;44.894;20.286;2023-07-31T06:52:56;100531.91;;;22.99;100.00
40612;BME280;26317;44.894;20.286;2023-07-31T06:55:27;100538.78;;;23.09;98.74
40612;BME280;26317;44.894;20.286;2023-07-31T06:57:57;100539.47;;;23.21;98.51
40612;BME280;26317;44.894;20.286;2023-07-31T07:00:28;100536.03;;;23.24;94.91
40612;BME280;26317;44.894;20.286;2023-07-31T07:02:59;100538.75;;;23.40;95.60
40612;BME280;26317;44.894;20.286;2023-07-31T07:05:35;100550.75;;;23.51;94.07
40612;BME280;26317;44.894;20.286;2023-07-31T07:08:05;100544.22;;;23.56;92.22
40612;BME280;26317;44.894;20.286;2023-07-31T07:10:36;100542.13;;;23.68;92.59
40612;BME280;26317;44.894;20.286;2023-07-31T07:13:07;100548.94;;;23.74;91.90
40612;BME280;26317;44.894;20.286;2023-07-31T07:15:37;100547.41;;;23.77;91.20
40612;BME280;26317;44.894;20.286;2023-07-31T07:18:10;100536.97;;;23.82;89.58
40612;BME280;26317;44.894;20.286;2023-07-31T07:20:46;100538.84;;;23.78;86.75
40612;BME280;26317;44.894;20.286;2023-07-31T07:23:16;100543.19;;;23.99;88.21
40612;BME280;26317;44.894;20.286;2023-07-31T07:25:47;100545.31;;;24.09;88.36
40612;BME280;26317;44.894;20.286;2023-07-31T07:28:20;100546.78;;;24.22;88.33
40612;BME280;26317;44.894;20.286;2023-07-31T07:30:51;100555.31;;;24.36;87.74
40612;BME280;26317;44.894;20.286;2023-07-31T07:33:22;100551.97;;;24.46;87.44
40612;BME280;26317;44.894;20.286;2023-07-31T07:36:00;100552.97;;;24.57;86.44
40612;BME280;26317;44.894;20.286;2023-07-31T07:38:34;100549.72;;;24.52;82.53
40612;BME280;26317;44.894;20.286;2023-07-31T07:41:07;100551.38;;;24.56;84.28
40612;BME280;26317;44.894;20.286;2023-07-31T07:43:43;100558.38;;;24.54;84.96
40612;BME280;26317;44.894;20.286;2023-07-31T07:46:20;100550.22;;;24.38;85.12
40612;BME280;26317;44.894;20.286;2023-07-31T07:48:52;100549.38;;;24.34;84.09
40612;BME280;26317;44.894;20.286;2023-07-31T07:51:26;100561.88;;;24.32;82.86
40612;BME280;26317;44.894;20.286;2023-07-31T07:53:59;100564.19;;;24.30;85.53
40612;BME280;26317;44.894;20.286;2023-07-31T07:56:34;100564.38;;;24.40;85.60
40612;BME280;26317;44.894;20.286;2023-07-31T07:59:06;100541.75;;;24.24;84.64
40612;BME280;26317;44.894;20.286;2023-07-31T08:01:36;100568.34;;;24.43;85.64
40612;BME280;26317;44.894;20.286;2023-07-31T08:04:09;100559.63;;;24.37;86.30
40612;BME280;26317;44.894;20.286;2023-07-31T08:06:44;100570.44;;;24.30;85.29
40612;BME280;26317;44.894;20.286;2023-07-31T08:09:18;100569.69;;;24.30;87.52
40612;BME280;26317;44.894;20.286;2023-07-31T08:11:50;100574.16;;;24.38;84.28
40612;BME280;26317;44.894;20.286;2023-07-31T08:14:20;100575.47;;;24.47;85.65
40612;BME280;26317;44.894;20.286;2023-07-31T08:16:55;100571.44;;;24.60;85.02
40612;BME280;26317;44.894;20.286;2023-07-31T08:19:28;100578.44;;;24.81;84.48
40612;BME280;26317;44.894;20.286;2023-07-31T08:22:05;100569.81;;;24.79;82.17
40612;BME280;26317;44.894;20.286;2023-07-31T08:24:39;100565.81;;;24.76;82.53
40612;BME280;26317;44.894;20.286;2023-07-31T08:27:10;100568.06;;;24.90;79.68
40612;BME280;26317;44.894;20.286;2023-07-31T08:29:43;100560.78;;;25.01;83.61
40612;BME280;26317;44.894;20.286;2023-07-31T08:32:14;100568.00;;;25.09;79.51
40612;BME280;26317;44.894;20.286;2023-07-31T08:34:45;100566.78;;;25.06;80.48
40612;BME280;26317;44.894;20.286;2023-07-31T08:37:20;100570.31;;;25.07;78.14
40612;BME280;26317;44.894;20.286;2023-07-31T08:39:54;100567.25;;;25.12;79.49
40612;BME280;26317;44.894;20.286;2023-07-31T08:42:25;100573.69;;;25.23;77.15
40612;BME280;26317;44.894;20.286;2023-07-31T08:44:58;100574.84;;;25.22;76.05
40612;BME280;26317;44.894;20.286;2023-07-31T08:47:31;100574.66;;;25.34;74.06
40612;BME280;26317;44.894;20.286;2023-07-31T08:50:02;100569.59;;;25.36;72.93
40612;BME280;26317;44.894;20.286;2023-07-31T08:52:35;100578.06;;;25.50;74.13
40612;BME280;26317;44.894;20.286;2023-07-31T08:55:06;100577.44;;;25.60;73.46
40612;BME280;26317;44.894;20.286;2023-07-31T08:57:38;100565.56;;;25.53;71.35
40612;BME280;26317;44.894;20.286;2023-07-31T09:00:10;100578.59;;;25.59;71.50
40612;BME280;26317;44.894;20.286;2023-07-31T09:02:45;100578.31;;;25.68;71.14
40612;BME280;26317;44.894;20.286;2023-07-31T09:05:17;100564.72;;;25.75;72.63
40612;BME280;26317;44.894;20.286;2023-07-31T09:07:51;100576.94;;;25.81;71.61
40612;BME280;26317;44.894;20.286;2023-07-31T09:10:22;100564.34;;;25.80;71.60
40612;BME280;26317;44.894;20.286;2023-07-31T09:12:52;100565.06;;;25.74;68.45
40612;BME280;26317;44.894;20.286;2023-07-31T09:15:23;100565.34;;;25.65;65.54
40612;BME280;26317;44.894;20.286;2023-07-31T09:18:05;100561.38;;;25.62;67.08
40612;BME280;26317;44.894;20.286;2023-07-31T09:20:36;100556.34;;;25.68;67.45
40612;BME280;26317;44.894;20.286;2023-07-31T09:23:11;100556.53;;;25.82;67.14
40612;BME280;26317;44.894;20.286;2023-07-31T09:25:46;100559.41;;;25.93;64.55
40612;BME280;26317;44.894;20.286;2023-07-31T09:28:17;100559.78;;;25.88;62.56
40612;BME280;26317;44.894;20.286;2023-07-31T09:30:49;100555.00;;;25.85;63.26
40612;BME280;26317;44.894;20.286;2023-07-31T09:33:19;100553.59;;;25.98;67.26
40612;BME280;26317;44.894;20.286;2023-07-31T09:35:50;100541.69;;;25.87;64.13
40612;BME280;26317;44.894;20.286;2023-07-31T09:38:24;100554.56;;;25.79;64.56
40612;BME280;26317;44.894;20.286;2023-07-31T09:40:58;100555.44;;;25.87;66.24
40612;BME280;26317;44.894;20.286;2023-07-31T09:43:29;100551.41;;;25.81;63.11
40612;BME280;26317;44.894;20.286;2023-07-31T09:46:13;100553.56;;;25.94;63.21
40612;BME280;26317;44.894;20.286;2023-07-31T09:48:43;100555.69;;;26.08;62.54
40612;BME280;26317;44.894;20.286;2023-07-31T09:51:14;100546.47;;;26.23;62.03
40612;BME280;26317;44.894;20.286;2023-07-31T09:53:52;100544.22;;;26.32;61.00
40612;BME280;26317;44.894;20.286;2023-07-31T09:56:25;100538.44;;;26.44;58.40
40612;BME280;26317;44.894;20.286;2023-07-31T09:58:56;100531.59;;;26.28;56.13
40612;BME280;26317;44.894;20.286;2023-07-31T10:01:30;100540.66;;;26.32;57.47
40612;BME280;26317;44.894;20.286;2023-07-31T10:04:01;100536.47;;;26.41;56.37
40612;BME280;26317;44.894;20.286;2023-07-31T10:06:34;100553.06;;;26.52;58.48
40612;BME280;26317;44.894;20.286;2023-07-31T10:09:10;100531.19;;;26.66;55.13
40612;BME280;26317;44.894;20.286;2023-07-31T10:11:43;100522.16;;;26.69;53.71
40612;BME280;26317;44.894;20.286;2023-07-31T10:14:20;100529.88;;;26.93;50.40
40612;BME280;26317;44.894;20.286;2023-07-31T10:16:52;100528.38;;;27.03;54.05
40612;BME280;26317;44.894;20.286;2023-07-31T10:19:23;100518.56;;;27.06;52.99
40612;BME280;26317;44.894;20.286;2023-07-31T10:21:56;100517.00;;;27.05;48.34
40612;BME280;26317;44.894;20.286;2023-07-31T10:24:32;100531.59;;;27.12;44.04
40612;BME280;26317;44.894;20.286;2023-07-31T10:27:04;100517.03;;;27.12;41.19
40612;BME280;26317;44.894;20.286;2023-07-31T10:29:35;100531.28;;;27.21;43.26
40612;BME280;26317;44.894;20.286;2023-07-31T10:32:06;100527.84;;;27.34;43.68
40612;BME280;26317;44.894;20.286;2023-07-31T10:34:39;100529.84;;;27.44;45.69
40612;BME280;26317;44.894;20.286;2023-07-31T10:37:23;100526.03;;;27.60;42.51
40612;BME280;26317;44.894;20.286;2023-07-31T10:40:04;100513.47;;;27.73;43.87
40612;BME280;26317;44.894;20.286;2023-07-31T10:42:36;100515.88;;;27.78;43.48
40612;BME280;26317;44.894;20.286;2023-07-31T10:45:08;100517.44;;;27.75;43.46
40612;BME280;26317;44.894;20.286;2023-07-31T10:47:43;100523.44;;;27.95;42.12
40612;BME280;26317;44.894;20.286;2023-07-31T10:50:17;100512.50;;;28.09;41.38
40612;BME280;26317;44.894;20.286;2023-07-31T10:52:49;100517.59;;;28.11;42.30
40612;BME280;26317;44.894;20.286;2023-07-31T10:55:31;100515.63;;;28.15;41.92
40612;BME280;26317;44.894;20.286;2023-07-31T10:58:08;100512.03;;;28.07;42.81
40612;BME280;26317;44.894;20.286;2023-07-31T11:00:40;100498.63;;;27.95;42.32
40612;BME280;26317;44.894;20.286;2023-07-31T11:03:16;100511.28;;;28.10;41.85
40612;BME280;26317;44.894;20.286;2023-07-31T11:05:50;100522.69;;;28.05;41.20
40612;BME280;26317;44.894;20.286;2023-07-31T11:08:23;100519.16;;;28.08;41.91
40612;BME280;26317;44.894;20.286;2023-07-31T11:11:08;100514.47;;;28.19;42.37
40612;BME280;26317;44.894;20.286;2023-07-31T11:13:44;100512.50;;;28.23;41.56
40612;BME280;26317;44.894;20.286;2023-07-31T11:16:17;100509.00;;;28.33;41.05
40612;BME280;26317;44.894;20.286;2023-07-31T11:18:48;100511.34;;;28.28;41.63
40612;BME280;26317;44.894;20.286;2023-07-31T11:21:21;100510.59;;;28.38;40.43
40612;BME280;26317;44.894;20.286;2023-07-31T11:23:54;100504.28;;;28.45;42.27
40612;BME280;26317;44.894;20.286;2023-07-31T11:26:28;100505.09;;;28.59;40.84
40612;BME280;26317;44.894;20.286;2023-07-31T11:28:59;100507.88;;;28.77;43.58
40612;BME280;26317;44.894;20.286;2023-07-31T11:31:29;100495.25;;;28.72;40.51
40612;BME280;26317;44.894;20.286;2023-07-31T11:34:10;100481.44;;;28.55;40.91
40612;BME280;26317;44.894;20.286;2023-07-31T11:36:41;100488.53;;;28.59;40.67
40612;BME280;26317;44.894;20.286;2023-07-31T11:39:22;100504.72;;;28.78;40.49
40612;BME280;26317;44.894;20.286;2023-07-31T11:42:02;100501.94;;;28.68;39.92
40612;BME280;26317;44.894;20.286;2023-07-31T11:44:38;100494.50;;;28.72;40.64
40612;BME280;26317;44.894;20.286;2023-07-31T11:47:16;100507.09;;;28.73;40.23
40612;BME280;26317;44.894;20.286;2023-07-31T11:49:47;100501.59;;;28.80;38.86
40612;BME280;26317;44.894;20.286;2023-07-31T11:52:19;100495.66;;;28.82;39.97
40612;BME280;26317;44.894;20.286;2023-07-31T11:54:50;100491.69;;;29.00;38.25
40612;BME280;26317;44.894;20.286;2023-07-31T11:57:25;100486.91;;;29.18;39.25
40612;BME280;26317;44.894;20.286;2023-07-31T12:00:01;100490.88;;;29.24;36.89
40612;BME280;26317;44.894;20.286;2023-07-31T12:02:32;100485.72;;;29.26;36.95
40612;BME280;26317;44.894;20.286;2023-07-31T12:05:04;100486.53;;;29.23;37.12
40612;BME280;26317;44.894;20.286;2023-07-31T12:07:49;100487.69;;;29.22;37.18
40612;BME280;26317;44.894;20.286;2023-07-31T12:10:28;100484.56;;;29.20;38.04
40612;BME280;26317;44.894;20.286;2023-07-31T12:13:04;100491.66;;;29.32;36.80
40612;BME280;26317;44.894;20.286;2023-07-31T12:15:37;100473.91;;;29.15;36.93
40612;BME280;26317;44.894;20.286;2023-07-31T12:18:15;100476.72;;;28.87;37.94
40612;BME280;26317;44.894;20.286;2023-07-31T12:20:47;100489.31;;;28.67;37.60
40612;BME280;26317;44.894;20.286;2023-07-31T12:23:19;100475.94;;;28.79;38.08
40612;BME280;26317;44.894;20.286;2023-07-31T12:26:02;100473.94;;;28.94;38.77
40612;BME280;26317;44.894;20.286;2023-07-31T12:28:39;100473.53;;;29.13;37.41
40612;BME280;26317;44.894;20.286;2023-07-31T12:31:13;100471.13;;;29.37;38.67
40612;BME280;26317;44.894;20.286;2023-07-31T12:33:55;100450.66;;;28.95;34.49
40612;BME280;26317;44.894;20.286;2023-07-31T12:36:26;100467.97;;;29.31;36.62
40612;BME280;26317;44.894;20.286;2023-07-31T12:38:57;100454.50;;;29.51;37.45
40612;BME280;26317;44.894;20.286;2023-07-31T12:41:28;100463.94;;;29.57;36.56
40612;BME280;26317;44.894;20.286;2023-07-31T12:44:01;100453.56;;;29.82;37.19
40612;BME280;26317;44.894;20.286;2023-07-31T12:46:31;100446.41;;;29.95;35.20
40612;BME280;26317;44.894;20.286;2023-07-31T12:49:05;100448.81;;;29.93;35.59
40612;BME280;26317;44.894;20.286;2023-07-31T12:51:35;100447.88;;;30.10;34.88
40612;BME280;26317;44.894;20.286;2023-07-31T12:54:05;100446.25;;;30.20;33.89
40612;BME280;26317;44.894;20.286;2023-07-31T12:56:35;100442.66;;;30.27;33.39
40612;BME280;26317;44.894;20.286;2023-07-31T12:59:09;100440.69;;;30.24;34.31
40612;BME280;26317;44.894;20.286;2023-07-31T13:01:39;100447.72;;;30.35;34.84
40612;BME280;26317;44.894;20.286;2023-07-31T13:04:10;100435.03;;;30.45;34.54
40612;BME280;26317;44.894;20.286;2023-07-31T13:06:41;100433.84;;;30.42;31.54
40612;BME280;26317;44.894;20.286;2023-07-31T13:09:11;100433.53;;;30.30;30.85